createdAt,value
2019-01-06T00:00:57.198Z,3.50
2019-01-06T00:01:57.301Z,3.60
2019-01-06T00:02:57.168Z,3.60
2019-01-06T00:03:57.159Z,3.50
2019-01-06T00:04:57.144Z,3.80
2019-01-06T00:05:57.135Z,3.80
2019-01-06T00:06:57.144Z,3.70
2019-01-06T00:07:57.112Z,3.90
2019-01-06T00:08:57.102Z,3.70
2019-01-06T00:09:57.089Z,4.00
2019-01-06T00:10:57.141Z,3.90
2019-01-06T00:11:57.083Z,3.70
2019-01-06T00:12:57.076Z,3.50
2019-01-06T00:13:57.060Z,3.70
2019-01-06T00:14:57.117Z,3.80
2019-01-06T00:15:57.019Z,3.50
2019-01-06T00:16:57.013Z,4.00
2019-01-06T00:17:57.029Z,3.90
2019-01-06T00:18:56.993Z,4.20
2019-01-06T00:19:56.985Z,4.10
2019-01-06T00:20:56.968Z,3.90
2019-01-06T00:21:57.006Z,4.10
2019-01-06T00:22:57.006Z,4.20
2019-01-06T00:23:56.937Z,4.10
2019-01-06T00:24:57.093Z,4.20
2019-01-06T00:25:56.917Z,4.00
2019-01-06T00:26:56.911Z,4.30
2019-01-06T00:27:56.925Z,3.80
2019-01-06T00:28:56.879Z,4.00
2019-01-06T00:29:56.906Z,4.50
2019-01-06T00:30:56.998Z,3.80
2019-01-06T00:31:56.862Z,4.20
2019-01-06T00:32:56.903Z,4.40
2019-01-06T00:33:56.828Z,3.90
2019-01-06T00:34:56.819Z,4.10
2019-01-06T00:35:56.825Z,4.10
2019-01-06T00:36:56.820Z,4.00
2019-01-06T00:37:56.782Z,4.10
2019-01-06T00:38:56.794Z,4.10
2019-01-06T00:39:56.884Z,4.30
2019-01-06T00:40:56.770Z,4.10
2019-01-06T00:41:56.744Z,4.10
2019-01-06T00:42:56.743Z,4.10
2019-01-06T00:43:56.722Z,4.00
2019-01-06T00:44:56.745Z,4.60
2019-01-06T00:45:56.711Z,4.40
2019-01-06T00:46:56.769Z,4.30
2019-01-06T00:47:56.680Z,4.10
2019-01-06T00:48:56.714Z,4.30
2019-01-06T00:49:56.652Z,4.40
2019-01-06T00:50:56.700Z,4.40
2019-01-06T00:51:56.644Z,4.30
2019-01-06T00:52:56.622Z,4.40
2019-01-06T00:53:56.614Z,4.30
2019-01-06T00:54:56.634Z,4.40
2019-01-06T00:55:56.600Z,4.60
2019-01-06T00:56:56.604Z,4.10
2019-01-06T00:57:56.568Z,4.30
2019-01-06T00:58:56.558Z,4.70
2019-01-06T00:59:56.558Z,4.50
2019-01-06T01:00:56.551Z,4.80
2019-01-06T01:01:56.519Z,4.40
2019-01-06T01:02:56.525Z,4.20
2019-01-06T01:03:56.577Z,4.30
2019-01-06T01:04:56.494Z,4.50
2019-01-06T01:05:56.496Z,4.20
2019-01-06T01:06:56.465Z,4.50
2019-01-06T01:07:56.501Z,4.40
2019-01-06T01:08:56.515Z,4.20
2019-01-06T01:09:56.463Z,4.50
2019-01-06T01:10:56.420Z,4.10
2019-01-06T01:11:56.589Z,4.20
2019-01-06T01:12:56.408Z,4.30
2019-01-06T01:13:56.409Z,4.50
2019-01-06T01:14:56.383Z,4.40
2019-01-06T01:15:56.365Z,4.10
2019-01-06T01:16:56.358Z,4.40
2019-01-06T01:17:56.344Z,4.30
2019-01-06T01:18:56.349Z,3.80
2019-01-06T01:19:56.323Z,4.00
2019-01-06T01:20:56.318Z,3.90
2019-01-06T01:21:56.312Z,4.10
2019-01-06T01:22:56.304Z,3.80
2019-01-06T01:23:56.312Z,4.10
2019-01-06T01:24:56.266Z,4.00
2019-01-06T01:25:56.252Z,4.30
2019-01-06T01:26:56.246Z,3.90
2019-01-06T01:27:56.244Z,4.10
2019-01-06T01:28:56.264Z,4.00
2019-01-06T01:29:56.281Z,4.10
2019-01-06T01:30:56.204Z,4.00
2019-01-06T01:31:56.219Z,4.00
2019-01-06T01:32:56.200Z,4.10
2019-01-06T01:33:56.179Z,4.10
2019-01-06T01:34:56.185Z,4.30
2019-01-06T01:35:56.234Z,4.20
2019-01-06T01:36:56.145Z,4.20
2019-01-06T01:37:56.190Z,4.10
2019-01-06T01:38:56.117Z,4.00
2019-01-06T01:39:56.101Z,4.00
2019-01-06T01:40:56.137Z,3.80
2019-01-06T01:41:56.082Z,4.10
2019-01-06T01:42:56.071Z,4.20
2019-01-06T01:43:56.071Z,4.10
2019-01-06T01:44:56.050Z,4.30
2019-01-06T01:45:56.161Z,4.00
2019-01-06T01:46:56.092Z,3.90
2019-01-06T01:47:56.068Z,3.90
2019-01-06T01:48:56.021Z,4.20
2019-01-06T01:49:56.027Z,4.10
2019-01-06T01:50:55.988Z,4.00
2019-01-06T01:51:55.996Z,3.80
2019-01-06T01:52:55.988Z,4.50
2019-01-06T01:53:55.961Z,3.90
2019-01-06T01:54:55.962Z,4.40
2019-01-06T01:55:56.009Z,4.50
2019-01-06T01:56:55.926Z,4.30
2019-01-06T01:57:55.912Z,4.90
2019-01-06T01:58:55.891Z,4.70
2019-01-06T01:59:55.981Z,4.60
2019-01-06T02:00:55.876Z,4.40
2019-01-06T02:01:55.882Z,4.70
2019-01-06T02:02:55.852Z,4.40
2019-01-06T02:03:55.853Z,4.50
2019-01-06T02:04:55.826Z,4.30
2019-01-06T02:05:55.832Z,4.30
2019-01-06T02:06:55.808Z,4.70
2019-01-06T02:07:55.803Z,4.40
2019-01-06T02:08:55.792Z,5.10
2019-01-06T02:09:55.790Z,4.70
2019-01-06T02:10:55.834Z,4.00
2019-01-06T02:11:56.371Z,4.30
2019-01-06T02:12:55.823Z,4.40
2019-01-06T02:13:55.754Z,4.30
2019-01-06T02:14:55.716Z,4.30
2019-01-06T02:15:55.720Z,4.60
2019-01-06T02:16:55.697Z,4.60
2019-01-06T02:17:55.705Z,4.50
2019-01-06T02:18:55.788Z,4.30
2019-01-06T02:19:55.712Z,4.10
2019-01-06T02:20:55.658Z,4.30
2019-01-06T02:21:55.650Z,4.40
2019-01-06T02:22:55.703Z,4.30
2019-01-06T02:23:55.629Z,4.20
2019-01-06T02:24:55.619Z,4.20
2019-01-06T02:25:55.604Z,4.70
2019-01-06T02:26:55.594Z,4.30
2019-01-06T02:27:56.272Z,4.30
2019-01-06T02:28:55.584Z,4.40
2019-01-06T02:29:55.568Z,4.20
2019-01-06T02:30:55.553Z,4.30
2019-01-06T02:31:55.538Z,4.20
2019-01-06T02:32:55.564Z,4.20
2019-01-06T02:33:55.534Z,4.30
2019-01-06T02:34:55.522Z,4.20
2019-01-06T02:35:55.492Z,4.70
2019-01-06T02:36:55.525Z,4.40
2019-01-06T02:37:55.491Z,4.30
2019-01-06T02:38:55.468Z,4.40
2019-01-06T02:39:55.457Z,4.40
2019-01-06T02:40:55.432Z,4.30
2019-01-06T02:41:55.454Z,4.20
2019-01-06T02:42:55.418Z,4.80
2019-01-06T02:43:55.401Z,4.50
2019-01-06T02:44:55.399Z,4.20
2019-01-06T02:45:55.382Z,4.20
2019-01-06T02:46:55.376Z,4.50
2019-01-06T02:47:55.375Z,4.40
2019-01-06T02:48:55.371Z,4.70
2019-01-06T02:49:55.336Z,4.20
2019-01-06T02:50:55.328Z,4.30
2019-01-06T02:51:55.321Z,4.30
2019-01-06T02:52:55.304Z,4.30
2019-01-06T02:53:55.320Z,4.50
2019-01-06T02:54:55.283Z,4.70
2019-01-06T02:55:55.279Z,4.30
2019-01-06T02:56:55.262Z,4.40
2019-01-06T02:57:55.252Z,4.30
2019-01-06T02:58:55.252Z,4.50
2019-01-06T02:59:55.328Z,4.20
2019-01-06T03:00:55.262Z,4.20
2019-01-06T03:01:55.206Z,4.10
2019-01-06T03:02:55.199Z,4.30
2019-01-06T03:03:55.191Z,4.40
2019-01-06T03:04:55.384Z,4.10
2019-01-06T03:05:55.202Z,4.40
2019-01-06T03:06:55.157Z,4.40
2019-01-06T03:07:55.148Z,4.50
2019-01-06T03:08:55.127Z,4.70
2019-01-06T03:09:55.120Z,4.20
2019-01-06T03:10:55.102Z,4.40
2019-01-06T03:11:55.110Z,4.40
2019-01-06T03:12:55.089Z,4.20
2019-01-06T03:13:55.076Z,4.00
2019-01-06T03:14:55.060Z,4.20
2019-01-06T03:15:55.071Z,4.40
2019-01-06T03:16:55.047Z,4.30
2019-01-06T03:17:55.035Z,4.00
2019-01-06T03:18:55.089Z,3.70
2019-01-06T03:19:55.011Z,4.20
2019-01-06T03:20:55.020Z,4.10
2019-01-06T03:21:55.097Z,3.90
2019-01-06T03:22:54.984Z,3.90
2019-01-06T03:23:54.963Z,3.60
2019-01-06T03:24:54.994Z,4.10
2019-01-06T03:25:54.953Z,3.90
2019-01-06T03:26:54.930Z,3.90
2019-01-06T03:27:54.922Z,3.80
2019-01-06T03:28:54.910Z,3.70
2019-01-06T03:29:54.905Z,4.10
2019-01-06T03:30:54.964Z,3.60
2019-01-06T03:31:54.875Z,3.80
2019-01-06T03:32:54.871Z,3.80
2019-01-06T03:33:54.863Z,3.50
2019-01-06T03:34:54.840Z,3.50
2019-01-06T03:35:54.835Z,3.40
2019-01-06T03:36:54.913Z,3.50
2019-01-06T03:37:54.814Z,3.90
2019-01-06T03:38:54.813Z,3.80
2019-01-06T03:39:54.785Z,3.90
2019-01-06T03:40:54.775Z,3.50
2019-01-06T03:41:54.789Z,3.40
2019-01-06T03:42:54.810Z,3.60
2019-01-06T03:43:54.745Z,3.70
2019-01-06T03:44:54.729Z,3.80
2019-01-06T03:45:54.726Z,3.60
2019-01-06T03:46:55.426Z,3.60
2019-01-06T03:47:54.717Z,3.50
2019-01-06T03:48:54.748Z,3.30
2019-01-06T03:49:54.688Z,3.70
2019-01-06T03:50:54.666Z,3.70
2019-01-06T03:51:54.679Z,3.70
2019-01-06T03:52:54.652Z,3.60
2019-01-06T03:53:54.648Z,3.60
2019-01-06T03:54:54.653Z,3.70
2019-01-06T03:55:54.608Z,3.60
2019-01-06T03:56:54.612Z,3.50
2019-01-06T03:57:54.617Z,3.70
2019-01-06T03:58:54.581Z,3.70
2019-01-06T03:59:54.600Z,3.40
2019-01-06T04:00:54.559Z,3.60
2019-01-06T04:01:54.551Z,3.40
2019-01-06T04:02:54.543Z,3.40
2019-01-06T04:03:54.543Z,3.60
2019-01-06T04:04:54.531Z,3.30
2019-01-06T04:05:54.500Z,3.30
2019-01-06T04:06:54.499Z,3.50
2019-01-06T04:07:54.502Z,3.30
2019-01-06T04:08:54.487Z,3.50
2019-01-06T04:09:54.480Z,3.30
2019-01-06T04:10:54.455Z,3.80
2019-01-06T04:11:54.450Z,3.10
2019-01-06T04:12:54.432Z,3.80
2019-01-06T04:13:54.417Z,3.60
2019-01-06T04:14:54.446Z,3.20
2019-01-06T04:15:54.394Z,3.50
2019-01-06T04:16:54.397Z,3.30
2019-01-06T04:17:54.377Z,3.40
2019-01-06T04:18:54.377Z,3.50
2019-01-06T04:19:54.353Z,3.30
2019-01-06T04:20:54.491Z,3.40
2019-01-06T04:21:54.325Z,3.30
2019-01-06T04:22:54.325Z,3.50
2019-01-06T04:23:54.331Z,3.30
2019-01-06T04:24:54.299Z,3.30
2019-01-06T04:25:54.307Z,3.40
2019-01-06T04:26:54.301Z,3.60
2019-01-06T04:27:54.270Z,3.80
2019-01-06T04:28:54.265Z,3.40
2019-01-06T04:29:54.313Z,3.50
2019-01-06T04:30:54.247Z,3.40
2019-01-06T04:31:54.214Z,3.60
2019-01-06T04:32:54.242Z,3.10
2019-01-06T04:33:54.196Z,3.40
2019-01-06T04:34:54.193Z,3.20
2019-01-06T04:35:54.176Z,3.60
2019-01-06T04:36:54.210Z,3.60
2019-01-06T04:37:54.157Z,3.50
2019-01-06T04:38:54.155Z,3.50
2019-01-06T04:39:54.150Z,3.60
2019-01-06T04:40:54.119Z,3.50
2019-01-06T04:41:54.113Z,3.70
2019-01-06T04:42:54.137Z,3.70
2019-01-06T04:43:54.090Z,3.50
2019-01-06T04:44:54.082Z,3.50
2019-01-06T04:45:54.144Z,4.00
2019-01-06T04:46:54.066Z,3.70
2019-01-06T04:47:54.069Z,3.40
2019-01-06T04:48:54.029Z,3.20
2019-01-06T04:49:54.016Z,3.40
2019-01-06T04:50:54.012Z,3.40
2019-01-06T04:51:54.015Z,3.80
2019-01-06T04:52:54.011Z,3.50
2019-01-06T04:53:54.009Z,3.30
2019-01-06T04:54:53.967Z,3.30
2019-01-06T04:55:53.961Z,3.30
2019-01-06T04:56:53.963Z,3.30
2019-01-06T04:57:53.976Z,3.20
2019-01-06T04:58:53.928Z,3.40
2019-01-06T04:59:53.921Z,3.10
2019-01-06T05:00:53.907Z,3.10
2019-01-06T05:01:53.889Z,3.00
2019-01-06T05:02:53.877Z,3.10
2019-01-06T05:03:53.893Z,4.80
2019-01-06T05:04:53.872Z,3.80
2019-01-06T05:05:53.874Z,3.40
2019-01-06T05:06:53.848Z,3.40
2019-01-06T05:07:53.821Z,3.60
2019-01-06T05:08:53.857Z,3.60
2019-01-06T05:09:53.805Z,3.20
2019-01-06T05:10:53.790Z,3.50
2019-01-06T05:11:53.834Z,3.60
2019-01-06T05:12:53.766Z,3.20
2019-01-06T05:13:53.806Z,3.20
2019-01-06T05:14:53.762Z,3.30
2019-01-06T05:15:53.738Z,3.20
2019-01-06T05:16:53.884Z,3.10
2019-01-06T05:17:53.717Z,2.90
2019-01-06T05:18:53.701Z,3.40
2019-01-06T05:19:53.746Z,3.10
2019-01-06T05:20:53.683Z,3.20
2019-01-06T05:21:53.673Z,3.10
2019-01-06T05:22:53.685Z,3.00
2019-01-06T05:23:53.662Z,3.00
2019-01-06T05:24:53.640Z,3.10
2019-01-06T05:25:53.661Z,2.90
2019-01-06T05:26:53.639Z,3.00
2019-01-06T05:27:53.635Z,3.20
2019-01-06T05:28:53.609Z,3.40
2019-01-06T05:29:53.588Z,3.40
2019-01-06T05:30:53.620Z,3.30
2019-01-06T05:31:53.655Z,2.90
2019-01-06T05:32:53.626Z,2.90
2019-01-06T05:33:53.569Z,3.30
2019-01-06T05:34:53.534Z,3.00
2019-01-06T05:35:53.524Z,3.00
2019-01-06T05:36:53.504Z,2.90
2019-01-06T05:37:53.539Z,2.90
2019-01-06T05:38:53.513Z,2.80
2019-01-06T05:39:53.479Z,3.10
2019-01-06T05:40:53.461Z,3.00
2019-01-06T05:41:53.461Z,3.10
2019-01-06T05:42:53.452Z,3.20
2019-01-06T05:43:53.564Z,2.90
2019-01-06T05:44:53.445Z,2.90
2019-01-06T05:45:53.410Z,3.40
2019-01-06T05:46:53.440Z,3.30
2019-01-06T05:47:53.385Z,3.10
2019-01-06T05:48:53.499Z,3.30
2019-01-06T05:49:53.379Z,3.10
2019-01-06T05:50:53.358Z,3.00
2019-01-06T05:51:53.357Z,2.80
2019-01-06T05:52:53.330Z,3.00
2019-01-06T05:53:53.321Z,3.20
2019-01-06T05:54:53.331Z,3.10
2019-01-06T05:55:53.326Z,3.10
2019-01-06T05:56:53.287Z,3.00
2019-01-06T05:57:53.280Z,3.10
2019-01-06T05:58:53.265Z,3.20
2019-01-06T05:59:53.326Z,3.10
2019-01-06T06:00:53.252Z,3.30
2019-01-06T06:01:53.249Z,3.30
2019-01-06T06:02:53.223Z,3.00
2019-01-06T06:03:53.222Z,3.10
2019-01-06T06:04:53.201Z,3.40
2019-01-06T06:05:53.212Z,3.00
2019-01-06T06:06:53.192Z,3.00
2019-01-06T06:07:53.176Z,3.10
2019-01-06T06:08:53.156Z,3.00
2019-01-06T06:09:53.147Z,3.00
2019-01-06T06:10:53.161Z,3.20
2019-01-06T06:11:53.160Z,3.10
2019-01-06T06:12:53.125Z,3.00
2019-01-06T06:13:53.103Z,3.40
2019-01-06T06:14:53.089Z,3.20
2019-01-06T06:15:53.112Z,3.10
2019-01-06T06:16:53.070Z,3.30
2019-01-06T06:17:53.058Z,3.30
2019-01-06T06:18:53.051Z,3.40
2019-01-06T06:19:53.037Z,3.10
2019-01-06T06:20:53.025Z,3.00
2019-01-06T06:21:53.026Z,2.70
2019-01-06T06:22:53.006Z,3.00
2019-01-06T06:23:52.997Z,2.60
2019-01-06T06:24:52.986Z,2.90
2019-01-06T06:25:52.983Z,2.70
2019-01-06T06:26:53.015Z,2.90
2019-01-06T06:27:52.959Z,2.80
2019-01-06T06:28:52.943Z,2.90
2019-01-06T06:29:52.936Z,2.90
2019-01-06T06:30:52.920Z,3.00
2019-01-06T06:31:52.910Z,2.80
2019-01-06T06:32:52.917Z,2.90
2019-01-06T06:33:52.892Z,2.90
2019-01-06T06:34:52.877Z,2.50
2019-01-06T06:35:52.892Z,2.60
2019-01-06T06:36:52.854Z,3.00
2019-01-06T06:37:52.865Z,2.90
2019-01-06T06:38:52.844Z,2.70
2019-01-06T06:39:52.821Z,2.70
2019-01-06T06:40:52.832Z,2.80
2019-01-06T06:41:52.803Z,3.10
2019-01-06T06:42:52.793Z,2.90
2019-01-06T06:43:52.804Z,3.20
2019-01-06T06:44:52.771Z,2.90
2019-01-06T06:45:52.813Z,2.60
2019-01-06T06:46:52.749Z,2.70
2019-01-06T06:47:52.738Z,2.90
2019-01-06T06:48:52.722Z,2.80
2019-01-06T06:49:52.721Z,2.80
2019-01-06T06:50:52.709Z,2.70
2019-01-06T06:51:52.685Z,2.70
2019-01-06T06:52:52.714Z,2.90
2019-01-06T06:53:52.673Z,2.80
2019-01-06T06:54:52.683Z,3.10
2019-01-06T06:55:52.647Z,3.00
2019-01-06T06:56:52.739Z,3.00
2019-01-06T06:57:52.625Z,2.90
2019-01-06T06:58:52.649Z,3.00
2019-01-06T06:59:52.786Z,3.00
2019-01-06T07:00:52.617Z,3.10
2019-01-06T07:01:52.679Z,2.70
2019-01-06T07:02:52.585Z,3.00
2019-01-06T07:03:52.600Z,3.00
2019-01-06T07:04:52.604Z,3.00
2019-01-06T07:05:52.561Z,2.90
2019-01-06T07:06:52.561Z,3.40
2019-01-06T07:07:53.215Z,3.40
2019-01-06T07:08:52.514Z,3.40
2019-01-06T07:09:52.527Z,3.30
2019-01-06T07:10:52.496Z,3.30
2019-01-06T07:11:52.487Z,3.20
2019-01-06T07:12:52.553Z,3.30
2019-01-06T07:13:52.450Z,3.00
2019-01-06T07:14:52.450Z,3.40
2019-01-06T07:15:52.462Z,3.60
2019-01-06T07:16:52.423Z,3.50
2019-01-06T07:17:52.494Z,3.80
2019-01-06T07:18:52.420Z,3.80
2019-01-06T07:19:52.387Z,3.80
2019-01-06T07:20:52.407Z,4.00
2019-01-06T07:21:52.367Z,3.20
2019-01-06T07:22:52.382Z,3.70
2019-01-06T07:23:52.339Z,3.70
2019-01-06T07:24:52.339Z,4.10
2019-01-06T07:25:52.328Z,3.80
2019-01-06T07:26:52.315Z,4.00
2019-01-06T07:27:52.304Z,4.20
2019-01-06T07:28:52.322Z,4.10
2019-01-06T07:29:52.282Z,4.20
2019-01-06T07:30:52.322Z,4.30
2019-01-06T07:31:52.259Z,4.20
2019-01-06T07:32:52.246Z,4.50
2019-01-06T07:33:52.249Z,4.20
2019-01-06T07:34:52.287Z,4.60
2019-01-06T07:35:52.259Z,4.50
2019-01-06T07:36:52.204Z,4.60
2019-01-06T07:37:52.210Z,4.80
2019-01-06T07:38:52.180Z,4.80
2019-01-06T07:39:52.185Z,4.80
2019-01-06T07:40:52.190Z,5.00
2019-01-06T07:41:52.163Z,4.90
2019-01-06T07:42:52.854Z,5.30
2019-01-06T07:43:52.132Z,5.30
2019-01-06T07:44:53.049Z,5.20
2019-01-06T07:47:02.582Z,4.90
2019-01-06T07:48:02.144Z,5.60
2019-01-06T07:49:01.978Z,5.50
2019-01-06T07:50:02.149Z,5.40
2019-01-06T07:51:01.929Z,5.60
2019-01-06T07:52:01.883Z,5.50
2019-01-06T07:53:01.961Z,5.60
2019-01-06T07:54:09.174Z,5.10
2019-01-06T07:56:14.918Z,4.70
2019-01-06T07:57:14.480Z,5.40
2019-01-06T07:58:14.468Z,5.40
2019-01-06T07:59:14.458Z,5.70
2019-01-06T08:00:15.488Z,5.60
2019-01-06T08:01:14.313Z,5.50
2019-01-06T08:02:14.308Z,5.70
2019-01-06T08:03:14.289Z,5.80
2019-01-06T08:04:14.272Z,5.70
2019-01-06T08:05:14.272Z,5.40
2019-01-06T08:06:14.290Z,5.60
2019-01-06T08:07:14.245Z,5.60
2019-01-06T08:08:14.270Z,5.70
2019-01-06T08:09:14.220Z,5.70
2019-01-06T08:10:14.208Z,5.60
2019-01-06T08:11:14.190Z,5.60
2019-01-06T08:12:14.221Z,5.90
2019-01-06T08:13:14.183Z,5.90
2019-01-06T08:14:14.198Z,5.60
2019-01-06T08:15:14.151Z,5.40
2019-01-06T08:16:14.189Z,5.70
2019-01-06T08:17:14.147Z,6.00
2019-01-06T08:18:14.158Z,5.70
2019-01-06T08:19:14.183Z,5.80
2019-01-06T08:20:23.930Z,5.60
2019-01-06T08:21:14.351Z,6.00
2019-01-06T08:22:14.129Z,5.50
2019-01-06T08:23:14.243Z,5.90
2019-01-06T08:26:58.458Z,5.50
2019-01-06T08:27:57.993Z,5.80
2019-01-06T08:28:57.866Z,6.00
2019-01-06T08:29:57.935Z,6.30
2019-01-06T08:30:57.853Z,6.40
2019-01-06T08:31:57.833Z,6.60
2019-01-06T08:32:57.788Z,6.60
2019-01-06T08:33:57.870Z,6.30
2019-01-06T08:34:57.819Z,6.10
2019-01-06T08:35:57.745Z,6.40
2019-01-06T08:36:57.748Z,6.70
2019-01-06T08:37:57.776Z,7.20
2019-01-06T08:38:57.710Z,6.80
2019-01-06T08:39:58.292Z,6.90
2019-01-06T08:40:57.716Z,6.50
2019-01-06T08:41:57.719Z,6.50
2019-01-06T08:43:00.761Z,6.90
2019-01-06T08:43:57.665Z,6.60
2019-01-06T08:44:57.684Z,7.10
2019-01-06T08:45:57.658Z,7.00
2019-01-06T08:46:57.637Z,7.30
2019-01-06T08:47:57.657Z,7.00
2019-01-06T08:48:57.652Z,7.80
2019-01-06T08:49:57.613Z,18.20
2019-01-06T08:50:57.606Z,16.50
2019-01-06T08:51:57.607Z,15.30
2019-01-06T08:52:57.607Z,9.80
2019-01-06T08:53:57.588Z,7.30
2019-01-06T08:54:57.539Z,7.80
2019-01-06T08:55:57.571Z,7.70
2019-01-06T08:56:57.524Z,9.30
2019-01-06T08:57:57.570Z,11.50
2019-01-06T08:58:57.526Z,9.10
2019-01-06T08:59:57.494Z,7.40
2019-01-06T09:00:57.480Z,7.20
2019-01-06T09:01:57.507Z,7.00
2019-01-06T09:02:57.453Z,8.00
2019-01-06T09:03:57.526Z,7.10
2019-01-06T09:04:57.452Z,7.30
2019-01-06T09:05:57.424Z,7.40
2019-01-06T09:06:57.765Z,8.30
2019-01-06T09:07:57.570Z,8.60
2019-01-06T09:08:57.395Z,8.90
2019-01-06T09:09:57.379Z,8.60
2019-01-06T09:10:57.412Z,10.00
2019-01-06T09:11:57.389Z,9.30
2019-01-06T09:13:04.531Z,9.00
2019-01-06T09:13:57.334Z,9.00
2019-01-06T09:14:57.316Z,8.30
2019-01-06T09:15:57.450Z,7.90
2019-01-06T09:16:57.333Z,8.00
2019-01-06T09:17:57.287Z,7.50
2019-01-06T09:18:57.397Z,7.20
2019-01-06T09:19:57.537Z,7.10
2019-01-06T09:20:57.296Z,7.00
2019-01-06T09:21:57.274Z,7.20
2019-01-06T09:22:57.257Z,8.20
2019-01-06T09:23:57.225Z,7.60
2019-01-06T09:24:57.227Z,8.10
2019-01-06T09:25:57.245Z,7.20
2019-01-06T09:26:57.214Z,7.70
2019-01-06T09:27:57.193Z,7.80
2019-01-06T09:28:57.204Z,7.70
2019-01-06T09:29:57.176Z,7.60
2019-01-06T09:30:57.153Z,6.90
2019-01-06T09:32:02.296Z,7.50
2019-01-06T09:32:58.312Z,6.70
2019-01-06T09:33:57.173Z,7.40
2019-01-06T09:34:57.103Z,7.30
2019-01-06T09:35:57.098Z,6.60
2019-01-06T09:36:57.097Z,6.70
2019-01-06T09:37:57.098Z,7.10
2019-01-06T09:38:57.086Z,6.90
2019-01-06T09:39:57.061Z,7.20
2019-01-06T09:40:57.034Z,7.60
2019-01-06T09:41:57.053Z,6.60
2019-01-06T09:42:57.023Z,6.10
2019-01-06T09:43:57.029Z,6.00
2019-01-06T09:44:57.006Z,6.50
2019-01-06T09:45:57.033Z,5.80
2019-01-06T09:46:56.971Z,5.60
2019-01-06T09:47:56.960Z,6.00
2019-01-06T09:49:01.236Z,6.20
2019-01-06T09:49:56.941Z,6.40
2019-01-06T09:50:56.966Z,6.20
2019-01-06T09:51:57.739Z,5.70
2019-01-06T09:52:58.848Z,5.90
2019-01-06T09:53:56.899Z,6.00
2019-01-06T09:54:56.916Z,5.70
2019-01-06T09:55:56.900Z,5.90
2019-01-06T09:56:56.900Z,5.50
2019-01-06T09:57:56.933Z,5.50
2019-01-06T09:58:56.848Z,6.20
2019-01-06T09:59:56.903Z,6.00
2019-01-06T10:00:56.825Z,5.80
2019-01-06T10:01:56.813Z,5.90
2019-01-06T10:02:57.770Z,5.90
2019-01-06T10:03:56.789Z,5.90
2019-01-06T10:04:56.789Z,6.00
2019-01-06T10:05:56.799Z,6.50
2019-01-06T10:06:56.759Z,6.80
2019-01-06T10:07:56.750Z,6.50
2019-01-06T10:08:56.733Z,5.70
2019-01-06T10:09:56.719Z,6.20
2019-01-06T10:10:57.752Z,5.60
2019-01-06T10:11:56.705Z,5.60
2019-01-06T10:12:56.691Z,5.70
2019-01-06T10:13:56.687Z,5.80
2019-01-06T10:14:56.670Z,6.10
2019-01-06T10:15:56.689Z,5.30
2019-01-06T10:16:56.678Z,5.90
2019-01-06T10:17:56.698Z,6.00
2019-01-06T10:18:56.628Z,6.10
2019-01-06T10:19:56.669Z,5.60
2019-01-06T10:20:56.740Z,6.00
2019-01-06T10:21:56.631Z,6.50
2019-01-06T10:22:56.603Z,6.70
2019-01-06T10:23:56.794Z,5.90
2019-01-06T10:24:56.568Z,5.70
2019-01-06T10:25:56.548Z,5.60
2019-01-06T10:26:56.708Z,5.40
2019-01-06T10:27:56.568Z,5.00
2019-01-06T10:28:56.518Z,5.20
2019-01-06T10:29:56.511Z,5.60
2019-01-06T10:30:56.535Z,5.30
2019-01-06T10:31:56.481Z,5.60
2019-01-06T10:32:56.469Z,5.80
2019-01-06T10:33:56.539Z,5.50
2019-01-06T10:34:56.452Z,6.40
2019-01-06T10:35:56.449Z,6.40
2019-01-06T10:36:56.426Z,5.70
2019-01-06T10:37:56.424Z,6.00
2019-01-06T10:38:56.480Z,6.10
2019-01-06T10:39:56.396Z,5.70
2019-01-06T10:40:56.397Z,7.50
2019-01-06T10:41:56.612Z,6.90
2019-01-06T10:42:56.369Z,7.20
2019-01-06T10:43:56.348Z,6.70
2019-01-06T10:44:56.371Z,7.00
2019-01-06T10:45:56.340Z,6.00
2019-01-06T10:46:56.491Z,5.80
2019-01-06T10:47:57.055Z,6.00
2019-01-06T10:48:56.296Z,6.30
2019-01-06T10:49:56.314Z,6.40
2019-01-06T10:50:56.309Z,6.00
2019-01-06T10:51:56.278Z,7.00
2019-01-06T10:52:56.337Z,6.30
2019-01-06T10:53:56.250Z,5.90
2019-01-06T10:54:56.258Z,6.10
2019-01-06T10:55:56.288Z,6.40
2019-01-06T10:56:56.235Z,6.00
2019-01-06T10:57:56.220Z,6.20
2019-01-06T10:58:56.222Z,6.00
2019-01-06T10:59:56.183Z,6.20
2019-01-06T11:00:56.252Z,5.90
2019-01-06T11:01:56.249Z,6.40
2019-01-06T11:02:56.160Z,5.60
2019-01-06T11:03:56.180Z,5.80
2019-01-06T11:04:56.727Z,5.90
2019-01-06T11:05:56.112Z,5.80
2019-01-06T11:06:56.156Z,5.50
2019-01-06T11:07:56.114Z,5.90
2019-01-06T11:08:56.107Z,6.80
2019-01-06T11:09:56.082Z,5.90
2019-01-06T11:10:56.057Z,6.40
2019-01-06T11:11:56.045Z,6.20
2019-01-06T11:12:56.105Z,6.00
2019-01-06T11:13:56.028Z,6.00
2019-01-06T11:14:56.013Z,6.10
2019-01-06T11:15:56.020Z,5.60
2019-01-06T11:16:56.042Z,5.60
2019-01-06T11:17:55.977Z,6.30
2019-01-06T11:18:55.973Z,6.10
2019-01-06T11:19:55.963Z,6.00
2019-01-06T11:20:55.980Z,5.60
2019-01-06T11:21:55.931Z,5.60
2019-01-06T11:22:55.968Z,5.60
2019-01-06T11:23:55.926Z,5.80
2019-01-06T11:24:55.898Z,5.80
2019-01-06T11:25:55.888Z,5.70
2019-01-06T11:26:55.890Z,5.80
2019-01-06T11:27:55.871Z,6.00
2019-01-06T11:28:56.252Z,5.30
2019-01-06T11:29:55.855Z,5.40
2019-01-06T11:30:55.839Z,6.00
2019-01-06T11:31:55.826Z,5.30
2019-01-06T11:32:55.830Z,5.30
2019-01-06T11:33:57.743Z,5.60
2019-01-06T11:34:55.797Z,5.10
2019-01-06T11:35:55.791Z,6.10
2019-01-06T11:36:55.771Z,4.90
2019-01-06T11:37:55.792Z,6.50
2019-01-06T11:38:55.836Z,7.20
2019-01-06T11:39:55.738Z,20.30
2019-01-06T11:40:55.733Z,8.40
2019-01-06T11:41:56.746Z,13.40
2019-01-06T11:42:55.708Z,7.70
2019-01-06T11:43:55.847Z,5.50
2019-01-06T11:44:55.704Z,5.40
2019-01-06T11:46:04.816Z,6.00
2019-01-06T11:48:18.598Z,4.10
2019-01-06T11:50:37.622Z,5.40
2019-01-06T11:52:39.193Z,4.50
2019-01-06T11:53:47.468Z,4.60
2019-01-06T11:54:47.271Z,4.70
2019-01-06T11:55:39.148Z,5.30
2019-01-06T11:56:38.720Z,4.90
2019-01-06T11:57:38.642Z,4.70
2019-01-06T11:58:38.705Z,5.40
2019-01-06T11:59:38.638Z,4.70
2019-01-06T12:00:38.548Z,4.70
2019-01-06T12:01:38.592Z,4.50
2019-01-06T12:02:39.241Z,4.50
2019-01-06T12:03:38.527Z,4.30
2019-01-06T12:04:38.501Z,4.60
2019-01-06T12:05:38.553Z,4.40
2019-01-06T12:06:38.510Z,5.50
2019-01-06T12:07:38.485Z,6.40
2019-01-06T12:08:41.157Z,4.30
2019-01-06T12:09:38.451Z,4.40
2019-01-06T12:10:38.473Z,4.60
2019-01-06T12:11:38.467Z,3.60
2019-01-06T12:12:38.484Z,3.70
2019-01-06T12:13:38.462Z,3.70
2019-01-06T12:14:38.421Z,4.60
2019-01-06T12:15:38.487Z,4.40
2019-01-06T12:16:38.376Z,4.30
2019-01-06T12:17:38.359Z,4.30
2019-01-06T12:18:38.358Z,4.40
2019-01-06T12:19:38.397Z,4.40
2019-01-06T12:20:38.335Z,4.20
2019-01-06T12:21:38.392Z,4.20
2019-01-06T12:22:38.323Z,4.40
2019-01-06T12:23:38.302Z,4.80
2019-01-06T12:24:38.328Z,4.30
2019-01-06T12:25:38.292Z,4.60
2019-01-06T12:26:38.262Z,4.20
2019-01-06T12:27:38.256Z,4.10
2019-01-06T12:28:38.908Z,4.20
2019-01-06T12:29:38.247Z,3.80
2019-01-06T12:30:38.232Z,4.30
2019-01-06T12:31:38.217Z,4.20
2019-01-06T12:32:38.194Z,4.30
2019-01-06T12:33:38.207Z,3.80
2019-01-06T12:34:38.866Z,4.10
2019-01-06T12:35:38.162Z,4.10
2019-01-06T12:36:38.158Z,3.90
2019-01-06T12:37:38.193Z,3.90
2019-01-06T12:38:38.131Z,3.60
2019-01-06T12:39:38.209Z,4.10
2019-01-06T12:40:38.127Z,3.80
2019-01-06T12:41:38.263Z,3.90
2019-01-06T12:42:38.134Z,4.20
2019-01-06T12:43:38.829Z,3.70
2019-01-06T12:44:44.724Z,3.40
2019-01-06T12:45:39.160Z,3.50
2019-01-06T12:46:38.055Z,3.60
2019-01-06T12:47:38.042Z,3.70
2019-01-06T12:48:38.034Z,3.50
2019-01-06T12:49:38.009Z,3.60
2019-01-06T12:50:38.046Z,3.70
2019-01-06T12:51:43.549Z,3.70
2019-01-06T12:52:39.006Z,4.00
2019-01-06T12:53:40.399Z,4.20
2019-01-06T12:54:37.967Z,3.50
2019-01-06T12:55:37.961Z,4.20
2019-01-06T12:56:37.957Z,4.50
2019-01-06T12:57:44.338Z,4.20
2019-01-06T12:58:39.096Z,4.20
2019-01-06T12:59:37.904Z,4.80
2019-01-06T13:00:37.939Z,4.00
2019-01-06T13:01:37.959Z,4.10
2019-01-06T13:02:37.879Z,4.30
2019-01-06T13:03:37.996Z,3.90
2019-01-06T13:04:37.847Z,3.70
2019-01-06T13:05:37.866Z,4.10
2019-01-06T13:06:37.824Z,4.50
2019-01-06T13:07:37.826Z,3.90
2019-01-06T13:08:37.794Z,3.90
2019-01-06T13:09:37.917Z,4.30
2019-01-06T13:10:37.783Z,4.40
2019-01-06T13:11:37.830Z,4.10
2019-01-06T13:12:39.461Z,3.50
2019-01-06T13:13:37.757Z,3.80
2019-01-06T13:14:37.733Z,3.80
2019-01-06T13:15:37.729Z,4.00
2019-01-06T13:16:37.711Z,3.90
2019-01-06T13:17:37.745Z,3.70
2019-01-06T13:18:37.702Z,4.20
2019-01-06T13:19:37.685Z,4.60
2019-01-06T13:20:37.663Z,4.50
2019-01-06T13:21:37.663Z,4.50
2019-01-06T13:22:37.706Z,4.50
2019-01-06T13:23:37.658Z,4.50
2019-01-06T13:24:37.665Z,4.50
2019-01-06T13:25:38.293Z,4.30
2019-01-06T13:26:39.660Z,4.90
2019-01-06T13:27:37.595Z,4.40